sensor_id;sensor_type;location;lat;lon;timestamp;pressure;altitude;pressure_sealevel;temperature;humidity
39341;BME280;25059;52.132;21.062;2022-09-21T00:02:14;100548.03;;;8.41;100.00
39341;BME280;25059;52.132;21.062;2022-09-21T00:04:59;100547.81;;;8.49;100.00
39341;BME280;25059;52.132;21.062;2022-09-21T00:07:43;100551.25;;;8.51;100.00
39341;BME280;25059;52.132;21.062;2022-09-21T00:10:28;100548.59;;;8.52;100.00
39341;BME280;25059;52.132;21.062;2022-09-21T00:13:12;100547.69;;;8.53;100.00
39341;BME280;25059;52.132;21.062;2022-09-21T00:15:57;100539.72;;;8.58;100.00
39341;BME280;25059;52.132;21.062;2022-09-21T00:22:11;100543.16;;;8.60;100.00
39341;BME280;25059;52.132;21.062;2022-09-21T00:24:55;100546.59;;;8.62;100.00
39341;BME280;25059;52.132;21.062;2022-09-21T00:27:40;100539.50;;;8.65;100.00
39341;BME280;25059;52.132;21.062;2022-09-21T00:30:24;100537.69;;;8.67;100.00
39341;BME280;25059;52.132;21.062;2022-09-21T00:33:08;100539.41;;;8.68;100.00
39341;BME280;25059;52.132;21.062;2022-09-21T00:35:53;100537.50;;;8.73;100.00
39341;BME280;25059;52.132;21.062;2022-09-21T00:38:38;100536.56;;;8.76;100.00
39341;BME280;25059;52.132;21.062;2022-09-21T00:41:23;100544.47;;;8.74;100.00
39341;BME280;25059;52.132;21.062;2022-09-21T00:44:18;100544.34;;;8.79;100.00
39341;BME280;25059;52.132;21.062;2022-09-21T00:47:08;100545.94;;;8.85;100.00
39341;BME280;25059;52.132;21.062;2022-09-21T00:49:55;100541.50;;;8.87;100.00
39341;BME280;25059;52.132;21.062;2022-09-21T00:52:41;100542.28;;;8.90;100.00
39341;BME280;25059;52.132;21.062;2022-09-21T00:55:28;100531.78;;;8.90;100.00
39341;BME280;25059;52.132;21.062;2022-09-21T00:58:15;100536.94;;;8.93;100.00
39341;BME280;25059;52.132;21.062;2022-09-21T01:01:01;100540.34;;;8.97;100.00
39341;BME280;25059;52.132;21.062;2022-09-21T01:03:46;100549.75;;;9.04;100.00
39341;BME280;25059;52.132;21.062;2022-09-21T01:06:32;100550.59;;;9.04;100.00
39341;BME280;25059;52.132;21.062;2022-09-21T01:09:17;100540.91;;;9.06;100.00
39341;BME280;25059;52.132;21.062;2022-09-21T01:26:20;100552.81;;;9.18;100.00
39341;BME280;25059;52.132;21.062;2022-09-21T01:29:12;100553.53;;;9.23;100.00
39341;BME280;25059;52.132;21.062;2022-09-21T01:32:01;100566.66;;;9.23;100.00
39341;BME280;25059;52.132;21.062;2022-09-21T01:38:01;100571.84;;;9.25;100.00
39341;BME280;25059;52.132;21.062;2022-09-21T01:40:49;100557.81;;;9.26;100.00
39341;BME280;25059;52.132;21.062;2022-09-21T01:43:37;100562.16;;;9.27;100.00
39341;BME280;25059;52.132;21.062;2022-09-21T01:46:24;100569.94;;;9.30;100.00
39341;BME280;25059;52.132;21.062;2022-09-21T01:49:12;100563.88;;;9.28;100.00
39341;BME280;25059;52.132;21.062;2022-09-21T01:52:00;100572.47;;;9.33;100.00
39341;BME280;25059;52.132;21.062;2022-09-21T01:54:49;100572.44;;;9.34;100.00
39341;BME280;25059;52.132;21.062;2022-09-21T02:00:19;100567.19;;;9.34;100.00
39341;BME280;25059;52.132;21.062;2022-09-21T02:03:06;100571.53;;;9.35;100.00
39341;BME280;25059;52.132;21.062;2022-09-21T02:05:55;100575.91;;;9.35;100.00
39341;BME280;25059;52.132;21.062;2022-09-21T02:08:40;100580.22;;;9.37;100.00
39341;BME280;25059;52.132;21.062;2022-09-21T02:11:24;100580.22;;;9.37;100.00
39341;BME280;25059;52.132;21.062;2022-09-21T02:14:16;100575.81;;;9.38;100.00
39341;BME280;25059;52.132;21.062;2022-09-21T02:19:56;100580.22;;;9.37;100.00
39341;BME280;25059;52.132;21.062;2022-09-21T02:31:05;100580.88;;;9.44;100.00
39341;BME280;25059;52.132;21.062;2022-09-21T02:36:43;100582.69;;;9.42;100.00
39341;BME280;25059;52.132;21.062;2022-09-21T02:39:31;100574.81;;;9.42;100.00
39341;BME280;25059;52.132;21.062;2022-09-21T02:42:21;100584.38;;;9.45;100.00
39341;BME280;25059;52.132;21.062;2022-09-21T02:45:12;100579.13;;;9.45;100.00
39341;BME280;25059;52.132;21.062;2022-09-21T02:48:02;100592.25;;;9.45;100.00
39341;BME280;25059;52.132;21.062;2022-09-21T02:50:50;100591.34;;;9.46;100.00
39341;BME280;25059;52.132;21.062;2022-09-21T02:53:37;100596.50;;;9.49;100.00
39341;BME280;25059;52.132;21.062;2022-09-21T02:56:23;100594.00;;;9.44;100.00
39341;BME280;25059;52.132;21.062;2022-09-21T02:59:08;100599.19;;;9.46;100.00
39341;BME280;25059;52.132;21.062;2022-09-21T03:01:53;100595.72;;;9.45;100.00
39341;BME280;25059;52.132;21.062;2022-09-21T03:08:07;100594.78;;;9.48;100.00
39341;BME280;25059;52.132;21.062;2022-09-21T03:10:51;100602.53;;;9.51;100.00
39341;BME280;25059;52.132;21.062;2022-09-21T03:13:36;100598.25;;;9.48;100.00
39341;BME280;25059;52.132;21.062;2022-09-21T03:16:21;100596.50;;;9.49;100.00
39341;BME280;25059;52.132;21.062;2022-09-21T03:19:07;100595.56;;;9.50;100.00
39341;BME280;25059;52.132;21.062;2022-09-21T03:21:52;100601.66;;;9.52;100.00
39341;BME280;25059;52.132;21.062;2022-09-21T03:24:37;100598.97;;;9.53;100.00
39341;BME280;25059;52.132;21.062;2022-09-21T03:27:29;100599.03;;;9.52;100.00
39341;BME280;25059;52.132;21.062;2022-09-21T03:30:14;100599.88;;;9.52;100.00
39341;BME280;25059;52.132;21.062;2022-09-21T03:32:59;100606.06;;;9.50;100.00
39341;BME280;25059;52.132;21.062;2022-09-21T03:35:44;100605.22;;;9.49;100.00
39341;BME280;25059;52.132;21.062;2022-09-21T03:38:29;100600.78;;;9.51;100.00
39341;BME280;25059;52.132;21.062;2022-09-21T03:41:14;100603.44;;;9.50;100.00
39341;BME280;25059;52.132;21.062;2022-09-21T03:43:59;100604.34;;;9.49;100.00
39341;BME280;25059;52.132;21.062;2022-09-21T03:46:43;100610.41;;;9.51;100.00
39341;BME280;25059;52.132;21.062;2022-09-21T03:49:27;100618.28;;;9.51;100.00
39341;BME280;25059;52.132;21.062;2022-09-21T03:52:11;100614.84;;;9.49;100.00
39341;BME280;25059;52.132;21.062;2022-09-21T03:54:56;100615.63;;;9.52;100.00
39341;BME280;25059;52.132;21.062;2022-09-21T03:57:40;100623.59;;;9.49;100.00
39341;BME280;25059;52.132;21.062;2022-09-21T04:00:24;100622.72;;;9.49;100.00
39341;BME280;25059;52.132;21.062;2022-09-21T04:03:09;100617.47;;;9.49;100.00
39341;BME280;25059;52.132;21.062;2022-09-21T04:05:53;100620.81;;;9.54;100.00
39341;BME280;25059;52.132;21.062;2022-09-21T04:08:38;100619.09;;;9.53;100.00
39341;BME280;25059;52.132;21.062;2022-09-21T04:11:23;100623.41;;;9.55;100.00
39341;BME280;25059;52.132;21.062;2022-09-21T04:14:09;100624.22;;;9.57;100.00
39341;BME280;25059;52.132;21.062;2022-09-21T04:16:54;100631.22;;;9.57;100.00
39341;BME280;25059;52.132;21.062;2022-09-21T04:19:39;100631.19;;;9.58;100.00
39341;BME280;25059;52.132;21.062;2022-09-21T04:22:24;100632.00;;;9.60;100.00
39341;BME280;25059;52.132;21.062;2022-09-21T04:25:09;100625.88;;;9.60;100.00
39341;BME280;25059;52.132;21.062;2022-09-21T04:27:54;100639.81;;;9.62;100.00
39341;BME280;25059;52.132;21.062;2022-09-21T04:30:38;100634.44;;;9.66;100.00
39341;BME280;25059;52.132;21.062;2022-09-21T04:33:23;100628.38;;;9.64;100.00
39341;BME280;25059;52.132;21.062;2022-09-21T04:36:08;100644.06;;;9.66;100.00
39341;BME280;25059;52.132;21.062;2022-09-21T04:38:52;100639.53;;;9.71;100.00
39341;BME280;25059;52.132;21.062;2022-09-21T04:41:36;100641.25;;;9.72;100.00
39341;BME280;25059;52.132;21.062;2022-09-21T04:44:21;100642.06;;;9.74;100.00
39341;BME280;25059;52.132;21.062;2022-09-21T04:47:05;100648.94;;;9.78;100.00
39341;BME280;25059;52.132;21.062;2022-09-21T04:49:50;100642.75;;;9.81;100.00
39341;BME280;25059;52.132;21.062;2022-09-21T04:52:35;100652.28;;;9.83;100.00
39341;BME280;25059;52.132;21.062;2022-09-21T04:55:20;100653.06;;;9.87;100.00
39341;BME280;25059;52.132;21.062;2022-09-21T04:58:04;100656.53;;;9.87;100.00
39341;BME280;25059;52.132;21.062;2022-09-21T05:00:49;100657.22;;;9.94;100.00
39341;BME280;25059;52.132;21.062;2022-09-21T05:03:34;100661.50;;;9.96;100.00
39341;BME280;25059;52.132;21.062;2022-09-21T05:06:18;100662.41;;;9.95;100.00
39341;BME280;25059;52.132;21.062;2022-09-21T05:09:03;100668.44;;;9.99;100.00
39341;BME280;25059;52.132;21.062;2022-09-21T05:12:08;100665.66;;;10.03;100.00
39341;BME280;25059;52.132;21.062;2022-09-21T05:14:52;100668.28;;;10.03;100.00
39341;BME280;25059;52.132;21.062;2022-09-21T05:17:40;100668.19;;;10.07;100.00
39341;BME280;25059;52.132;21.062;2022-09-21T05:20:24;100661.97;;;10.09;100.00
39341;BME280;25059;52.132;21.062;2022-09-21T05:23:08;100665.38;;;10.13;100.00
39341;BME280;25059;52.132;21.062;2022-09-21T05:25:53;100670.63;;;10.13;100.00
39341;BME280;25059;52.132;21.062;2022-09-21T05:28:37;100673.25;;;10.13;100.00
39341;BME280;25059;52.132;21.062;2022-09-21T05:37:12;100680.13;;;10.17;100.00
39341;BME280;25059;52.132;21.062;2022-09-21T05:40:04;100681.84;;;10.18;100.00
39341;BME280;25059;52.132;21.062;2022-09-21T05:42:48;100692.25;;;10.22;100.00
39341;BME280;25059;52.132;21.062;2022-09-21T05:45:33;100686.75;;;10.30;100.00
39341;BME280;25059;52.132;21.062;2022-09-21T05:48:18;100694.53;;;10.33;100.00
39341;BME280;25059;52.132;21.062;2022-09-21T05:54:12;100694.72;;;10.53;100.00
39341;BME280;25059;52.132;21.062;2022-09-21T05:57:02;100690.81;;;10.65;100.00
39341;BME280;25059;52.132;21.062;2022-09-21T06:02:57;100691.53;;;10.70;100.00
39341;BME280;25059;52.132;21.062;2022-09-21T06:05:46;100702.06;;;10.70;100.00
39341;BME280;25059;52.132;21.062;2022-09-21T06:08:32;100690.53;;;10.74;100.00
39341;BME280;25059;52.132;21.062;2022-09-21T06:11:23;100691.91;;;10.84;100.00
39341;BME280;25059;52.132;21.062;2022-09-21T06:14:11;100689.13;;;10.89;100.00
39341;BME280;25059;52.132;21.062;2022-09-21T06:16:56;100696.88;;;10.93;100.00
39341;BME280;25059;52.132;21.062;2022-09-21T06:19:43;100685.31;;;10.97;100.00
39341;BME280;25059;52.132;21.062;2022-09-21T06:22:28;100700.25;;;10.97;100.00
39341;BME280;25059;52.132;21.062;2022-09-21T06:25:12;100692.66;;;11.13;100.00
39341;BME280;25059;52.132;21.062;2022-09-21T06:28:04;100701.72;;;11.29;100.00
39341;BME280;25059;52.132;21.062;2022-09-21T06:30:51;100710.25;;;11.36;100.00
39341;BME280;25059;52.132;21.062;2022-09-21T06:33:36;100700.88;;;11.28;100.00
39341;BME280;25059;52.132;21.062;2022-09-21T06:36:23;100699.09;;;11.29;100.00
39341;BME280;25059;52.132;21.062;2022-09-21T06:39:15;100708.03;;;11.25;100.00
39341;BME280;25059;52.132;21.062;2022-09-21T06:41:59;100705.16;;;11.31;100.00
39341;BME280;25059;52.132;21.062;2022-09-21T06:44:43;100709.97;;;11.20;100.00
39341;BME280;25059;52.132;21.062;2022-09-21T06:47:28;100714.25;;;11.22;100.00
39341;BME280;25059;52.132;21.062;2022-09-21T06:50:13;100714.03;;;11.28;100.00
39341;BME280;25059;52.132;21.062;2022-09-21T06:53:01;100713.97;;;11.30;100.00
39341;BME280;25059;52.132;21.062;2022-09-21T06:55:48;100709.34;;;11.37;100.00
39341;BME280;25059;52.132;21.062;2022-09-21T06:58:39;100716.09;;;11.44;100.00
39341;BME280;25059;52.132;21.062;2022-09-21T07:01:23;100720.47;;;11.45;100.00
39341;BME280;25059;52.132;21.062;2022-09-21T07:04:10;100721.63;;;11.61;100.00
39341;BME280;25059;52.132;21.062;2022-09-21T07:06:58;100727.16;;;11.77;100.00
39341;BME280;25059;52.132;21.062;2022-09-21T07:09:42;100719.94;;;12.05;100.00
39341;BME280;25059;52.132;21.062;2022-09-21T07:12:28;100725.03;;;12.10;100.00
39341;BME280;25059;52.132;21.062;2022-09-21T07:15:27;100723.09;;;12.37;100.00
39341;BME280;25059;52.132;21.062;2022-09-21T07:18:18;100728.91;;;12.45;100.00
39341;BME280;25059;52.132;21.062;2022-09-21T07:21:03;100722.78;;;12.44;100.00
39341;BME280;25059;52.132;21.062;2022-09-21T07:23:48;100731.72;;;12.40;100.00
39341;BME280;25059;52.132;21.062;2022-09-21T07:26:33;100723.63;;;12.45;100.00
39341;BME280;25059;52.132;21.062;2022-09-21T07:29:19;100726.81;;;12.31;100.00
39341;BME280;25059;52.132;21.062;2022-09-21T07:32:18;100725.00;;;12.33;100.00
39341;BME280;25059;52.132;21.062;2022-09-21T07:35:06;100726.44;;;12.62;100.00
39341;BME280;25059;52.132;21.062;2022-09-21T07:37:50;100725.34;;;12.88;100.00
39341;BME280;25059;52.132;21.062;2022-09-21T07:40:35;100730.75;;;13.05;100.00
39341;BME280;25059;52.132;21.062;2022-09-21T07:43:20;100728.19;;;13.04;100.00
39341;BME280;25059;52.132;21.062;2022-09-21T07:46:05;100728.19;;;13.44;100.00
39341;BME280;25059;52.132;21.062;2022-09-21T07:49:18;100722.88;;;13.83;100.00
39341;BME280;25059;52.132;21.062;2022-09-21T07:52:02;100721.53;;;13.94;100.00
39341;BME280;25059;52.132;21.062;2022-09-21T07:54:47;100720.44;;;13.98;100.00
39341;BME280;25059;52.132;21.062;2022-09-21T07:57:33;100729.88;;;13.27;100.00
39341;BME280;25059;52.132;21.062;2022-09-21T08:00:47;100731.22;;;13.15;100.00
39341;BME280;25059;52.132;21.062;2022-09-21T08:03:35;100734.25;;;13.46;100.00
39341;BME280;25059;52.132;21.062;2022-09-21T08:06:48;100725.81;;;13.77;100.00
39341;BME280;25059;52.132;21.062;2022-09-21T08:09:34;100727.38;;;13.81;100.00
39341;BME280;25059;52.132;21.062;2022-09-21T08:12:18;100726.56;;;14.17;100.00
39341;BME280;25059;52.132;21.062;2022-09-21T08:15:04;100730.00;;;14.19;100.00
39341;BME280;25059;52.132;21.062;2022-09-21T08:17:49;100726.31;;;13.85;100.00
39341;BME280;25059;52.132;21.062;2022-09-21T08:20:43;100727.81;;;13.91;100.00
39341;BME280;25059;52.132;21.062;2022-09-21T08:23:27;100737.94;;;14.00;100.00
39341;BME280;25059;52.132;21.062;2022-09-21T08:26:12;100733.44;;;14.02;100.00
39341;BME280;25059;52.132;21.062;2022-09-21T08:29:02;100735.72;;;14.47;100.00
39341;BME280;25059;52.132;21.062;2022-09-21T08:31:47;100746.06;;;14.33;100.00
39341;BME280;25059;52.132;21.062;2022-09-21T08:34:31;100741.44;;;14.01;100.00
39341;BME280;25059;52.132;21.062;2022-09-21T08:37:19;100740.81;;;14.14;100.00
39341;BME280;25059;52.132;21.062;2022-09-21T08:40:08;100744.22;;;14.35;100.00
39341;BME280;25059;52.132;21.062;2022-09-21T08:45:41;100739.78;;;15.24;100.00
39341;BME280;25059;52.132;21.062;2022-09-21T08:48:35;100736.22;;;15.07;100.00
39341;BME280;25059;52.132;21.062;2022-09-21T08:51:30;100751.31;;;15.23;100.00
39341;BME280;25059;52.132;21.062;2022-09-21T08:54:19;100748.50;;;15.26;100.00
39341;BME280;25059;52.132;21.062;2022-09-21T08:57:09;100738.50;;;15.48;100.00
39341;BME280;25059;52.132;21.062;2022-09-21T09:04:30;100750.19;;;14.58;100.00
39341;BME280;25059;52.132;21.062;2022-09-21T09:07:30;100749.97;;;14.62;100.00
39341;BME280;25059;52.132;21.062;2022-09-21T09:10:47;100758.66;;;14.28;100.00
39341;BME280;25059;52.132;21.062;2022-09-21T09:19:50;100756.66;;;14.52;100.00
39341;BME280;25059;52.132;21.062;2022-09-21T09:23:01;100752.56;;;15.33;100.00
39341;BME280;25059;52.132;21.062;2022-09-21T09:25:45;100747.53;;;15.61;100.00
39341;BME280;25059;52.132;21.062;2022-09-21T09:29:01;100746.09;;;16.20;100.00
39341;BME280;25059;52.132;21.062;2022-09-21T09:31:48;100744.69;;;16.44;100.00
39341;BME280;25059;52.132;21.062;2022-09-21T09:34:39;100745.13;;;16.21;100.00
39341;BME280;25059;52.132;21.062;2022-09-21T09:37:29;100752.28;;;15.55;100.00
39341;BME280;25059;52.132;21.062;2022-09-21T09:43:35;100757.13;;;14.60;100.00
39341;BME280;25059;52.132;21.062;2022-09-21T09:53:12;100750.47;;;15.05;100.00
39341;BME280;25059;52.132;21.062;2022-09-21T09:56:51;100750.72;;;15.00;100.00
39341;BME280;25059;52.132;21.062;2022-09-21T09:59:53;100751.09;;;15.10;100.00
39341;BME280;25059;52.132;21.062;2022-09-21T10:02:56;100744.25;;;15.56;100.00
39341;BME280;25059;52.132;21.062;2022-09-21T10:05:43;100748.44;;;16.72;100.00
39341;BME280;25059;52.132;21.062;2022-09-21T10:11:35;100733.59;;;16.84;100.00
39341;BME280;25059;52.132;21.062;2022-09-21T10:14:47;100742.41;;;17.14;100.00
39341;BME280;25059;52.132;21.062;2022-09-21T10:17:39;100741.94;;;17.22;96.27
39341;BME280;25059;52.132;21.062;2022-09-21T10:20:24;100745.72;;;16.58;100.00
39341;BME280;25059;52.132;21.062;2022-09-21T10:23:15;100739.00;;;16.82;100.00
39341;BME280;25059;52.132;21.062;2022-09-21T10:26:03;100731.16;;;18.37;85.29
39341;BME280;25059;52.132;21.062;2022-09-21T10:28:55;100740.06;;;18.50;85.75
39341;BME280;25059;52.132;21.062;2022-09-21T10:32:02;100737.25;;;17.84;83.95
39341;BME280;25059;52.132;21.062;2022-09-21T10:35:18;100733.59;;;17.28;87.69
39341;BME280;25059;52.132;21.062;2022-09-21T10:38:14;100736.88;;;17.90;86.42
39341;BME280;25059;52.132;21.062;2022-09-21T10:41:27;100740.69;;;18.27;83.15
39341;BME280;25059;52.132;21.062;2022-09-21T10:44:37;100732.22;;;17.65;89.17
39341;BME280;25059;52.132;21.062;2022-09-21T10:47:49;100742.81;;;17.22;95.62
39341;BME280;25059;52.132;21.062;2022-09-21T10:57:57;100747.06;;;15.53;100.00
39341;BME280;25059;52.132;21.062;2022-09-21T11:04:10;100728.63;;;17.07;100.00
39341;BME280;25059;52.132;21.062;2022-09-21T11:07:00;100732.53;;;18.57;100.00
39341;BME280;25059;52.132;21.062;2022-09-21T11:10:08;100734.06;;;19.89;95.80
39341;BME280;25059;52.132;21.062;2022-09-21T11:16:15;100739.16;;;17.67;100.00
39341;BME280;25059;52.132;21.062;2022-09-21T11:22:04;100737.13;;;16.84;100.00
39341;BME280;25059;52.132;21.062;2022-09-21T11:33:44;100726.97;;;20.14;93.33
39341;BME280;25059;52.132;21.062;2022-09-21T11:47:13;100718.59;;;19.06;98.18
39341;BME280;25059;52.132;21.062;2022-09-21T11:53:24;100710.16;;;23.05;68.24
39341;BME280;25059;52.132;21.062;2022-09-21T11:56:34;100714.88;;;22.17;68.94
39341;BME280;25059;52.132;21.062;2022-09-21T12:08:41;100714.06;;;20.44;69.74
39341;BME280;25059;52.132;21.062;2022-09-21T12:20:24;100698.81;;;23.74;51.73
39341;BME280;25059;52.132;21.062;2022-09-21T12:31:17;100685.94;;;25.98;41.24
39341;BME280;25059;52.132;21.062;2022-09-21T12:34:28;100680.81;;;25.77;40.73
39341;BME280;25059;52.132;21.062;2022-09-21T12:46:22;100680.66;;;22.84;42.48
39341;BME280;25059;52.132;21.062;2022-09-21T12:52:44;100672.44;;;23.89;40.60
39341;BME280;25059;52.132;21.062;2022-09-21T13:03:30;100679.88;;;26.41;34.74
39341;BME280;25059;52.132;21.062;2022-09-21T13:16:37;100686.44;;;21.60;42.90
39341;BME280;25059;52.132;21.062;2022-09-21T13:19:54;100693.09;;;21.43;43.41
39341;BME280;25059;52.132;21.062;2022-09-21T13:22:50;100699.00;;;19.45;46.13
39341;BME280;25059;52.132;21.062;2022-09-21T13:26:11;100697.34;;;18.79;48.87
39341;BME280;25059;52.132;21.062;2022-09-21T13:29:00;100709.28;;;18.73;51.39
39341;BME280;25059;52.132;21.062;2022-09-21T13:48:12;100720.34;;;14.37;100.00
39341;BME280;25059;52.132;21.062;2022-09-21T13:51:05;100723.75;;;14.75;100.00
39341;BME280;25059;52.132;21.062;2022-09-21T13:53:53;100727.06;;;16.28;92.65
39341;BME280;25059;52.132;21.062;2022-09-21T13:56:40;100726.06;;;19.13;69.72
39341;BME280;25059;52.132;21.062;2022-09-21T13:59:29;100722.22;;;19.93;65.12
39341;BME280;25059;52.132;21.062;2022-09-21T14:02:21;100727.03;;;21.32;59.12
39341;BME280;25059;52.132;21.062;2022-09-21T14:05:28;100715.69;;;23.55;51.34
39341;BME280;25059;52.132;21.062;2022-09-21T14:08:18;100729.63;;;23.49;48.83
39341;BME280;25059;52.132;21.062;2022-09-21T14:14:14;100710.25;;;22.51;50.22
39341;BME280;25059;52.132;21.062;2022-09-21T14:17:02;100720.75;;;21.09;55.62
39341;BME280;25059;52.132;21.062;2022-09-21T14:22:39;100691.44;;;24.06;49.48
39341;BME280;25059;52.132;21.062;2022-09-21T14:25:25;100698.88;;;24.43;48.48
39341;BME280;25059;52.132;21.062;2022-09-21T14:28:10;100689.25;;;25.92;44.38
39341;BME280;25059;52.132;21.062;2022-09-21T14:31:07;100691.53;;;24.55;46.34
39341;BME280;25059;52.132;21.062;2022-09-21T14:33:56;100697.81;;;19.36;65.01
39341;BME280;25059;52.132;21.062;2022-09-21T14:36:49;100704.25;;;18.68;76.58
39341;BME280;25059;52.132;21.062;2022-09-21T14:39:39;100720.84;;;17.77;84.96
39341;BME280;25059;52.132;21.062;2022-09-21T14:42:26;100709.50;;;17.59;91.71
39341;BME280;25059;52.132;21.062;2022-09-21T14:45:13;100698.13;;;19.44;72.14
39341;BME280;25059;52.132;21.062;2022-09-21T14:50:58;100694.25;;;23.65;55.07
39341;BME280;25059;52.132;21.062;2022-09-21T14:56:57;100690.97;;;24.51;48.87
39341;BME280;25059;52.132;21.062;2022-09-21T15:15:34;100700.97;;;23.29;46.84
39341;BME280;25059;52.132;21.062;2022-09-21T15:18:21;100708.63;;;20.46;54.55
39341;BME280;25059;52.132;21.062;2022-09-21T15:21:15;100704.44;;;19.05;61.53
39341;BME280;25059;52.132;21.062;2022-09-21T15:24:09;100715.50;;;18.32;66.08
39341;BME280;25059;52.132;21.062;2022-09-21T15:27:01;100723.53;;;17.19;74.43
39341;BME280;25059;52.132;21.062;2022-09-21T15:29:46;100712.94;;;18.31;71.56
39341;BME280;25059;52.132;21.062;2022-09-21T15:32:47;100702.91;;;21.20;58.90
39341;BME280;25059;52.132;21.062;2022-09-21T15:35:38;100717.75;;;19.18;62.09
39341;BME280;25059;52.132;21.062;2022-09-21T15:38:47;100726.34;;;17.01;74.20
39341;BME280;25059;52.132;21.062;2022-09-21T15:42:17;100741.25;;;15.79;88.04
39341;BME280;25059;52.132;21.062;2022-09-21T15:45:17;100738.31;;;15.18;97.87
39341;BME280;25059;52.132;21.062;2022-09-21T15:48:02;100728.44;;;14.87;100.00
39341;BME280;25059;52.132;21.062;2022-09-21T15:50:51;100738.75;;;14.57;100.00
39341;BME280;25059;52.132;21.062;2022-09-21T15:53:38;100741.28;;;14.41;100.00
39341;BME280;25059;52.132;21.062;2022-09-21T15:56:26;100742.09;;;14.25;100.00
39341;BME280;25059;52.132;21.062;2022-09-21T15:59:12;100746.25;;;14.11;100.00
39341;BME280;25059;52.132;21.062;2022-09-21T16:01:59;100756.81;;;13.93;100.00
39341;BME280;25059;52.132;21.062;2022-09-21T16:04:44;100748.59;;;13.80;100.00
39341;BME280;25059;52.132;21.062;2022-09-21T16:07:34;100744.38;;;14.68;100.00
39341;BME280;25059;52.132;21.062;2022-09-21T16:10:36;100747.22;;;15.67;100.00
39341;BME280;25059;52.132;21.062;2022-09-21T16:13:21;100750.31;;;15.08;100.00
39341;BME280;25059;52.132;21.062;2022-09-21T16:16:27;100756.06;;;14.64;100.00
39341;BME280;25059;52.132;21.062;2022-09-21T16:19:11;100767.09;;;13.99;100.00
39341;BME280;25059;52.132;21.062;2022-09-21T16:22:04;100774.56;;;13.70;100.00
39341;BME280;25059;52.132;21.062;2022-09-21T16:24:51;100779.31;;;13.43;100.00
39341;BME280;25059;52.132;21.062;2022-09-21T16:27:36;100782.25;;;13.15;100.00
39341;BME280;25059;52.132;21.062;2022-09-21T16:39:00;100787.03;;;12.64;100.00
39341;BME280;25059;52.132;21.062;2022-09-21T16:41:50;100798.75;;;12.56;100.00
39341;BME280;25059;52.132;21.062;2022-09-21T16:44:34;100791.16;;;12.49;100.00
39341;BME280;25059;52.132;21.062;2022-09-21T16:47:25;100791.47;;;12.41;100.00
39341;BME280;25059;52.132;21.062;2022-09-21T16:50:10;100795.13;;;12.37;100.00
39341;BME280;25059;52.132;21.062;2022-09-21T16:52:55;100797.91;;;12.34;100.00
39341;BME280;25059;52.132;21.062;2022-09-21T16:55:40;100791.03;;;12.30;100.00
39341;BME280;25059;52.132;21.062;2022-09-21T16:58:25;100796.28;;;12.30;100.00
39341;BME280;25059;52.132;21.062;2022-09-21T17:01:12;100796.53;;;12.24;100.00
39341;BME280;25059;52.132;21.062;2022-09-21T17:03:56;100797.63;;;12.18;100.00
39341;BME280;25059;52.132;21.062;2022-09-21T17:06:41;100810.00;;;12.16;100.00
39341;BME280;25059;52.132;21.062;2022-09-21T17:09:27;100798.66;;;12.14;100.00
39341;BME280;25059;52.132;21.062;2022-09-21T17:12:15;100806.75;;;12.10;100.00
39341;BME280;25059;52.132;21.062;2022-09-21T17:15:00;100807.78;;;12.06;100.00
39341;BME280;25059;52.132;21.062;2022-09-21T17:17:47;100807.88;;;12.03;100.00
39341;BME280;25059;52.132;21.062;2022-09-21T17:20:32;100808.13;;;11.96;100.00
39341;BME280;25059;52.132;21.062;2022-09-21T17:23:17;100805.53;;;11.95;100.00
39341;BME280;25059;52.132;21.062;2022-09-21T17:26:02;100810.88;;;11.93;100.00
39341;BME280;25059;52.132;21.062;2022-09-21T17:32:16;100820.03;;;11.83;100.00
39341;BME280;25059;52.132;21.062;2022-09-21T17:38:08;100809.03;;;11.71;100.00
39341;BME280;25059;52.132;21.062;2022-09-21T17:40:52;100825.81;;;11.68;100.00
39341;BME280;25059;52.132;21.062;2022-09-21T17:43:42;100828.44;;;11.68;100.00
39341;BME280;25059;52.132;21.062;2022-09-21T17:46:35;100826.94;;;11.61;100.00
39341;BME280;25059;52.132;21.062;2022-09-21T17:49:24;100832.22;;;11.61;100.00
39341;BME280;25059;52.132;21.062;2022-09-21T17:52:11;100829.81;;;11.55;100.00
39341;BME280;25059;52.132;21.062;2022-09-21T17:55:16;100834.38;;;11.50;100.00
39341;BME280;25059;52.132;21.062;2022-09-21T17:58:07;100832.59;;;11.50;100.00
39341;BME280;25059;52.132;21.062;2022-09-21T18:01:00;100821.47;;;11.42;100.00
39341;BME280;25059;52.132;21.062;2022-09-21T18:03:46;100826.69;;;11.44;100.00
39341;BME280;25059;52.132;21.062;2022-09-21T18:06:32;100830.38;;;11.38;100.00
39341;BME280;25059;52.132;21.062;2022-09-21T18:09:17;100836.63;;;11.36;100.00
39341;BME280;25059;52.132;21.062;2022-09-21T18:20:51;100835.16;;;11.27;100.00
39341;BME280;25059;52.132;21.062;2022-09-21T18:23:49;100839.56;;;11.26;100.00
39341;BME280;25059;52.132;21.062;2022-09-21T18:26:36;100847.41;;;11.28;100.00
39341;BME280;25059;52.132;21.062;2022-09-21T18:29:24;100847.56;;;11.23;100.00
39341;BME280;25059;52.132;21.062;2022-09-21T18:32:27;100848.53;;;11.21;100.00
39341;BME280;25059;52.132;21.062;2022-09-21T18:35:19;100855.50;;;11.22;100.00